Time;durP1;ratioP1;P1;durP2;ratioP2;P2;SDS_P1;SDS_P2;PMS_P1;PMS_P2;Temp;Humidity;BMP_temperature;BMP_pressure;BME280_temperature;BME280_humidity;BME280_pressure;Samples;Min_cycle;Max_cycle;Signal;HPM_P1;HPM_P2
2022/06/09 00:00:47;;;;;;;9.20;3.15;;;15.00;93.70;;;;;;4791099;29;20508;-74
2022/06/09 00:03:22;;;;;;;5.50;2.67;;;15.00;93.70;;;;;;4788864;29;20058;-74
2022/06/09 00:05:49;;;;;;;6.57;2.55;;;15.00;93.70;;;;;;4801761;29;20047;-74
2022/06/09 00:08:17;;;;;;;4.18;2.08;;;14.90;93.70;;;;;;4787265;29;20051;-74
2022/06/09 00:10:51;;;;;;;3.58;2.25;;;14.90;93.70;;;;;;4795663;29;20092;-74
2022/06/09 00:13:18;;;;;;;4.90;2.42;;;14.90;93.70;;;;;;4795204;29;20093;-73
2022/06/09 00:15:45;;;;;;;6.18;2.75;;;14.80;93.70;;;;;;4787400;29;20059;-75
2022/06/09 00:18:12;;;;;;;5.18;2.13;;;14.80;93.80;;;;;;4789260;29;20518;-74
2022/06/09 00:20:39;;;;;;;5.28;2.60;;;14.80;94.00;;;;;;4787649;30;20112;-74
2022/06/09 00:23:06;;;;;;;4.85;2.47;;;14.80;93.80;;;;;;4773791;29;20155;-74
2022/06/09 00:25:35;;;;;;;7.70;2.38;;;14.80;93.80;;;;;;4790985;29;20078;-74
2022/06/09 00:28:02;;;;;;;3.72;1.52;;;14.70;93.90;;;;;;4791279;29;20046;-74
2022/06/09 00:30:29;;;;;;;3.42;1.70;;;14.70;93.90;;;;;;4811117;29;20126;-74
2022/06/09 00:32:57;;;;;;;5.47;1.95;;;14.70;93.90;;;;;;4791905;29;20499;-74
2022/06/09 00:35:24;;;;;;;6.72;2.20;;;14.70;93.90;;;;;;4802491;29;20039;-74
2022/06/09 00:37:51;;;;;;;4.15;2.22;;;14.70;93.90;;;;;;4800169;29;20062;-74
2022/06/09 00:40:18;;;;;;;4.70;1.58;;;14.70;93.90;;;;;;4787329;29;20043;-74
2022/06/09 00:42:46;;;;;;;4.97;1.70;;;14.70;93.90;;;;;;4787572;29;20055;-73
2022/06/09 00:45:38;;;;;;;4.95;1.80;;;14.70;93.90;;;;;;4800777;29;20095;-74
2022/06/09 00:48:23;;;;;;;4.78;1.60;;;14.70;93.80;;;;;;4799902;29;20047;-74
2022/06/09 00:51:00;;;;;;;5.00;1.73;;;14.70;93.90;;;;;;4803229;29;20453;-74
2022/06/09 00:53:33;;;;;;;5.45;1.48;;;14.70;93.80;;;;;;4802362;29;20055;-74
2022/06/09 00:56:01;;;;;;;7.32;2.00;;;14.70;93.80;;;;;;4792937;29;20070;-74
2022/06/09 00:58:32;;;;;;;4.15;1.27;;;14.70;93.80;;;;;;4793931;29;20384;-74
2022/06/09 01:01:05;;;;;;;7.55;1.50;;;14.70;93.80;;;;;;4772722;29;20507;-74
2022/06/09 01:03:49;;;;;;;6.28;1.48;;;14.70;93.80;;;;;;4788607;29;20058;-74
2022/06/09 01:06:25;;;;;;;4.80;1.25;;;14.70;93.80;;;;;;4790789;29;20457;-74
2022/06/09 01:09:03;;;;;;;6.82;1.30;;;14.60;93.80;;;;;;4814941;29;20479;-74
2022/06/09 01:11:31;;;;;;;2.92;1.30;;;14.60;93.80;;;;;;4772098;30;20056;-74
2022/06/09 01:13:59;;;;;;;7.78;2.22;;;14.60;93.90;;;;;;4774078;29;20129;-74
2022/06/09 01:16:41;;;;;;;7.60;2.40;;;14.60;93.90;;;;;;4789927;29;20205;-74
2022/06/09 01:19:20;;;;;;;8.02;1.63;;;14.60;93.90;;;;;;4802011;29;20067;-75
2022/06/09 01:22:11;;;;;;;7.55;1.40;;;14.50;93.90;;;;;;4788466;29;20483;-75
2022/06/09 01:24:49;;;;;;;5.10;1.80;;;14.50;93.90;;;;;;4795733;29;20070;-74
2022/06/09 01:27:41;;;;;;;3.30;1.38;;;14.50;93.90;;;;;;4805132;29;20059;-74
2022/06/09 01:30:16;;;;;;;5.43;1.15;;;14.40;93.90;;;;;;4793750;29;20051;-74
2022/06/09 01:32:54;;;;;;;2.53;0.93;;;14.40;93.90;;;;;;4802874;29;20074;-74
2022/06/09 01:35:44;;;;;;;5.65;1.90;;;14.40;94.00;;;;;;4794394;29;20115;-75
2022/06/09 01:38:11;;;;;;;4.32;1.40;;;14.40;94.00;;;;;;4788309;29;20513;-74
2022/06/09 01:40:38;;;;;;;6.57;2.00;;;14.40;94.10;;;;;;4784933;29;20051;-74
2022/06/09 01:43:06;;;;;;;5.30;0.98;;;14.40;94.10;;;;;;4788774;29;20051;-74
2022/06/09 01:46:05;;;;;;;6.05;1.63;;;14.30;94.00;;;;;;4798079;29;20059;-75
2022/06/09 01:48:33;;;;;;;3.60;1.10;;;14.30;94.10;;;;;;4791824;29;20035;-75
2022/06/09 01:51:15;;;;;;;3.95;1.42;;;14.30;94.10;;;;;;4797089;29;20487;-74
2022/06/09 01:54:20;;;;;;;3.35;1.65;;;14.30;94.10;;;;;;4801742;29;20072;-74
2022/06/09 01:57:06;;;;;;;3.58;1.10;;;14.30;94.10;;;;;;4771652;30;20506;-74
2022/06/09 01:59:59;;;;;;;5.70;1.70;;;14.20;94.20;;;;;;4787877;29;20435;-73
2022/06/09 02:02:32;;;;;;;;;;;14.20;94.10;;;;;;4790191;29;20055;-74
2022/06/09 02:05:20;;;;;;;3.67;1.00;;;14.20;94.20;;;;;;4771050;29;19926;-75
2022/06/09 02:07:49;;;;;;;3.63;0.98;;;14.10;94.10;;;;;;4794669;29;20055;-75
2022/06/09 02:10:31;;;;;;;5.78;1.33;;;14.10;94.20;;;;;;4811217;29;20059;-74
2022/06/09 02:13:04;;;;;;;6.70;1.30;;;14.10;94.20;;;;;;4787293;29;20510;-75
2022/06/09 02:15:38;;;;;;;6.20;1.70;;;14.10;94.20;;;;;;4801300;29;20134;-75
2022/06/09 02:18:15;;;;;;;3.35;1.23;;;14.00;94.20;;;;;;4785854;29;20059;-75
2022/06/09 02:20:48;;;;;;;8.20;1.65;;;14.10;94.30;;;;;;4804428;29;20502;-75
2022/06/09 02:23:16;;;;;;;5.53;1.17;;;14.00;94.30;;;;;;4771464;30;20108;-75
2022/06/09 02:25:43;;;;;;;6.32;1.23;;;14.00;94.30;;;;;;4803370;29;20055;-75
2022/06/09 02:28:10;;;;;;;2.97;0.95;;;14.00;94.30;;;;;;4786292;29;20047;-75
2022/06/09 02:30:38;;;;;;;2.78;0.90;;;14.00;94.30;;;;;;4781016;29;20054;-75
2022/06/09 02:33:21;;;;;;;4.32;1.40;;;14.00;94.30;;;;;;4780751;29;20044;-75
2022/06/09 02:35:49;;;;;;;3.40;0.98;;;14.00;94.40;;;;;;4787278;30;20055;-75
2022/06/09 02:38:18;;;;;;;2.92;1.00;;;13.90;94.30;;;;;;4775300;29;20130;-75
2022/06/09 02:40:46;;;;;;;3.13;0.80;;;13.90;94.30;;;;;;4774868;29;20112;-75
2022/06/09 02:43:13;;;;;;;3.05;1.17;;;13.90;94.40;;;;;;4803830;29;20051;-75
2022/06/09 02:45:41;;;;;;;4.45;0.93;;;13.90;94.70;;;;;;4810212;29;20059;-75
2022/06/09 02:48:09;;;;;;;4.88;0.77;;;13.80;94.40;;;;;;4800601;29;20409;-75
2022/06/09 02:50:36;;;;;;;5.95;0.90;;;13.80;94.50;;;;;;4771161;30;20083;-75
2022/06/09 02:53:03;;;;;;;4.55;1.15;;;13.80;94.50;;;;;;4798182;29;20078;-75
2022/06/09 02:55:31;;;;;;;2.25;0.90;;;13.80;94.50;;;;;;4806682;29;20058;-75
2022/06/09 02:57:59;;;;;;;3.40;0.90;;;13.80;94.50;;;;;;4790323;29;20131;-75
2022/06/09 03:00:25;;;;;;;4.53;1.10;;;13.80;94.50;;;;;;4770737;30;20150;-74
2022/06/09 03:03:02;;;;;;;3.13;1.40;;;13.80;94.50;;;;;;4810514;29;20461;-75
2022/06/09 03:05:31;;;;;;;5.88;0.93;;;13.80;94.50;;;;;;4788931;29;20058;-74
2022/06/09 03:07:58;;;;;;;5.32;0.95;;;13.70;94.50;;;;;;4771000;29;20075;-74
2022/06/09 03:10:25;;;;;;;3.20;1.00;;;13.70;94.40;;;;;;4785548;29;20058;-74
2022/06/09 03:12:53;;;;;;;5.60;0.98;;;13.80;94.50;;;;;;4785697;29;20048;-75
2022/06/09 03:15:22;;;;;;;4.07;0.88;;;13.80;94.40;;;;;;4808616;29;20082;-76
2022/06/09 03:17:51;;;;;;;4.10;1.17;;;13.70;94.40;;;;;;4800592;29;20113;-75
2022/06/09 03:20:31;;;;;;;3.42;0.90;;;13.80;94.40;;;;;;4792078;29;20112;-75
2022/06/09 03:22:58;;;;;;;8.05;1.60;;;13.80;94.40;;;;;;4806127;29;20047;-75
2022/06/09 03:25:25;;;;;;;4.93;1.45;;;13.70;94.40;;;;;;4804251;29;20051;-75
2022/06/09 03:27:53;;;;;;;6.18;1.45;;;13.70;94.40;;;;;;4785493;29;20108;-75
2022/06/09 03:30:20;;;;;;;5.07;1.35;;;13.70;94.40;;;;;;4788387;29;20048;-75
2022/06/09 03:32:47;;;;;;;4.63;0.77;;;13.80;94.40;;;;;;4775166;29;20051;-75
2022/06/09 03:35:14;;;;;;;7.97;1.15;;;13.80;94.40;;;;;;4797773;29;20055;-75
2022/06/09 03:37:41;;;;;;;4.00;1.15;;;13.90;94.40;;;;;;4779034;30;20130;-75
2022/06/09 03:40:13;;;;;;;3.65;1.38;;;13.90;94.60;;;;;;4798776;29;20043;-75
2022/06/09 03:42:40;;;;;;;6.28;1.80;;;14.00;94.30;;;;;;4803654;29;20502;-75
2022/06/09 03:45:08;;;;;;;7.75;1.98;;;14.00;94.20;;;;;;4773672;29;20455;-75
2022/06/09 03:47:36;;;;;;;4.93;1.52;;;14.00;94.20;;;;;;4803573;29;20043;-75
2022/06/09 03:50:05;;;;;;;6.95;1.52;;;14.00;94.20;;;;;;4789718;29;20044;-75
2022/06/09 03:52:32;;;;;;;3.65;1.38;;;14.00;94.10;;;;;;4789712;30;20061;-75
2022/06/09 03:54:59;;;;;;;4.85;1.40;;;14.10;94.10;;;;;;4773490;30;20047;-75
2022/06/09 03:57:26;;;;;;;4.15;1.55;;;14.10;94.20;;;;;;4789645;29;20138;-75
2022/06/09 03:59:53;;;;;;;7.18;1.70;;;14.20;94.10;;;;;;4773633;30;20547;-75
2022/06/09 04:02:23;;;;;;;4.85;1.42;;;14.20;94.00;;;;;;4788137;29;20050;-75
2022/06/09 04:04:52;;;;;;;3.83;1.60;;;14.30;94.00;;;;;;4785168;29;20061;-75
2022/06/09 04:07:19;;;;;;;6.70;1.60;;;14.30;94.00;;;;;;4781785;29;20038;-74
2022/06/09 04:09:47;;;;;;;5.72;1.10;;;14.30;94.00;;;;;;4800575;29;20039;-75
2022/06/09 04:12:15;;;;;;;4.78;1.15;;;14.40;93.90;;;;;;4774592;30;20082;-75
2022/06/09 04:14:42;;;;;;;5.43;2.05;;;14.40;93.90;;;;;;4788351;29;20392;-75
2022/06/09 04:17:11;;;;;;;6.75;1.67;;;14.40;93.90;;;;;;4800225;29;20414;-75
2022/06/09 04:19:39;;;;;;;5.07;1.38;;;14.40;93.90;;;;;;4783248;29;20054;-75
2022/06/09 04:22:09;;;;;;;9.43;2.08;;;14.50;93.90;;;;;;4800644;29;20517;-75
2022/06/09 04:24:36;;;;;;;5.60;2.00;;;14.50;93.90;;;;;;4787487;29;20101;-75
2022/06/09 04:27:04;;;;;;;7.60;1.98;;;14.50;93.90;;;;;;4787656;29;20503;-75
2022/06/09 04:29:31;;;;;;;6.97;1.73;;;14.50;93.90;;;;;;4790365;29;20138;-75
2022/06/09 04:31:58;;;;;;;5.22;2.05;;;14.50;93.90;;;;;;4788180;29;20043;-75
2022/06/09 04:34:25;;;;;;;4.20;1.88;;;14.60;93.90;;;;;;4787651;29;20087;-75
2022/06/09 04:36:52;;;;;;;8.80;2.20;;;14.60;93.90;;;;;;4787620;29;20063;-75
2022/06/09 04:39:19;;;;;;;6.88;2.00;;;14.60;93.90;;;;;;4787048;29;20122;-75
2022/06/09 04:41:46;;;;;;;5.05;1.63;;;14.60;94.00;;;;;;4788886;29;20062;-75
2022/06/09 04:44:13;;;;;;;7.90;2.40;;;14.60;94.00;;;;;;4788555;29;20590;-75
2022/06/09 04:46:40;;;;;;;6.57;2.00;;;14.60;94.00;;;;;;4778324;29;20059;-75
2022/06/09 04:49:07;;;;;;;8.43;2.35;;;14.70;94.00;;;;;;4796627;29;20101;-75
2022/06/09 04:51:34;;;;;;;7.95;2.17;;;14.70;94.00;;;;;;4775855;29;20074;-75
2022/06/09 04:54:02;;;;;;;8.32;2.13;;;14.70;94.00;;;;;;4772964;30;20104;-75
2022/06/09 04:56:28;;;;;;;6.13;2.28;;;14.70;94.00;;;;;;4812810;29;20067;-75
2022/06/09 04:58:55;;;;;;;5.55;1.70;;;14.70;93.90;;;;;;4802772;29;20055;-75
2022/06/09 05:01:25;;;;;;;5.75;2.15;;;14.70;93.90;;;;;;4778712;30;20528;-75
2022/06/09 05:03:53;;;;;;;8.00;2.50;;;14.80;94.00;;;;;;4787360;29;20051;-75
2022/06/09 05:06:22;;;;;;;9.23;1.90;;;14.70;94.00;;;;;;4787239;29;20055;-75
2022/06/09 05:08:51;;;;;;;6.50;2.05;;;14.70;94.00;;;;;;4803566;29;20062;-75
2022/06/09 05:11:21;;;;;;;8.43;2.90;;;14.70;94.00;;;;;;4787496;29;20136;-75
2022/06/09 05:13:49;;;;;;;3.92;1.88;;;14.80;94.00;;;;;;4786859;29;20516;-75
2022/06/09 05:16:17;;;;;;;5.03;2.03;;;14.80;94.00;;;;;;4802065;29;20055;-75
2022/06/09 05:18:44;;;;;;;7.25;1.83;;;14.90;94.00;;;;;;4788294;29;20058;-75
2022/06/09 05:21:11;;;;;;;8.48;2.22;;;14.90;93.90;;;;;;4802167;29;20142;-75
2022/06/09 05:23:38;;;;;;;7.57;1.85;;;15.10;93.90;;;;;;4772275;29;20498;-75
2022/06/09 05:26:07;;;;;;;6.50;2.45;;;15.10;93.80;;;;;;4801236;29;20051;-76
2022/06/09 05:28:34;;;;;;;6.07;2.10;;;15.20;93.80;;;;;;4786123;30;20073;-75
2022/06/09 05:31:02;;;;;;;6.95;2.05;;;15.20;93.70;;;;;;4772831;29;20067;-75
2022/06/09 05:33:29;;;;;;;8.02;2.38;;;15.30;93.70;;;;;;4805223;29;20563;-75
2022/06/09 05:35:57;;;;;;;9.27;2.08;;;15.50;93.60;;;;;;4786647;29;20101;-75
2022/06/09 05:46:43;;;;;;;4.75;2.00;;;15.50;93.50;;;;;;4787916;29;20043;-76
2022/06/09 05:49:15;;;;;;;5.50;1.60;;;15.50;93.60;;;;;;4785775;29;20452;-75
2022/06/09 05:51:42;;;;;;;6.72;1.88;;;15.60;93.50;;;;;;4770364;30;20092;-75
2022/06/09 05:54:10;;;;;;;3.70;1.63;;;15.60;93.50;;;;;;4785988;29;20062;-75
2022/06/09 05:56:37;;;;;;;6.38;1.73;;;15.60;93.40;;;;;;4785732;29;20091;-75
2022/06/09 05:59:04;;;;;;;4.60;1.35;;;15.50;93.40;;;;;;4791869;29;20046;-76
2022/06/09 06:01:31;;;;;;;5.85;2.00;;;15.60;93.40;;;;;;4806241;29;20104;-75
2022/06/09 06:03:59;;;;;;;6.20;1.70;;;15.60;93.30;;;;;;4771261;30;20109;-75
2022/06/09 06:06:35;;;;;;;6.78;1.25;;;15.60;93.30;;;;;;4807424;29;20411;-75
2022/06/09 06:09:15;;;;;;;4.50;1.30;;;15.70;93.40;;;;;;4787640;29;20078;-75
2022/06/09 06:11:43;;;;;;;2.42;1.15;;;15.80;93.30;;;;;;4790947;29;20092;-75
2022/06/09 06:14:11;;;;;;;3.90;1.00;;;15.90;93.10;;;;;;4771297;29;20134;-76
2022/06/09 06:16:39;;;;;;;2.90;1.20;;;15.90;93.00;;;;;;4771652;30;20086;-79
2022/06/09 06:19:09;;;;;;;4.47;1.10;;;16.00;93.30;;;;;;4786364;30;20166;-75
2022/06/09 06:21:38;;;;;;;4.30;1.08;;;16.10;92.90;;;;;;4771826;30;20576;-79
2022/06/09 06:24:06;;;;;;;3.47;0.90;;;16.20;92.80;;;;;;4802123;29;20855;-78
2022/06/09 06:26:34;;;;;;;3.30;1.25;;;16.30;92.70;;;;;;4793099;29;20077;-79
2022/06/09 06:29:03;;;;;;;3.67;1.33;;;16.40;92.50;;;;;;4794803;29;20047;-77
2022/06/09 06:31:30;;;;;;;2.88;1.10;;;16.40;92.30;;;;;;4772453;30;20092;-77
2022/06/09 06:33:58;;;;;;;2.72;1.23;;;16.40;92.30;;;;;;4802138;29;20043;-78
2022/06/09 06:36:25;;;;;;;3.10;1.10;;;16.50;92.20;;;;;;4772697;29;20058;-77
2022/06/09 06:38:52;;;;;;;2.33;0.68;;;16.60;92.20;;;;;;4787148;30;20067;-78
2022/06/09 06:41:19;;;;;;;2.17;0.75;;;16.70;92.10;;;;;;4771528;30;20043;-76
2022/06/09 06:43:50;;;;;;;3.80;1.00;;;16.80;91.90;;;;;;4797178;29;20070;-78
2022/06/09 06:46:18;;;;;;;3.78;1.27;;;16.90;91.70;;;;;;4771518;29;20067;-78
2022/06/09 06:48:47;;;;;;;3.47;0.80;;;17.00;91.60;;;;;;4785952;29;20734;-77
2022/06/09 06:51:16;;;;;;;3.63;1.05;;;17.10;91.50;;;;;;4785925;30;20097;-77
2022/06/09 06:53:43;;;;;;;5.30;0.93;;;17.10;91.50;;;;;;4771352;30;20074;-76
2022/06/09 06:56:10;;;;;;;1.42;0.80;;;17.20;91.30;;;;;;4786091;29;20101;-78
2022/06/09 06:58:37;;;;;;;2.17;0.68;;;17.30;91.20;;;;;;4801216;29;20092;-78
2022/06/09 07:01:04;;;;;;;3.90;1.00;;;17.40;91.10;;;;;;4801024;29;20089;-77
2022/06/09 07:03:31;;;;;;;1.60;0.70;;;17.50;91.00;;;;;;4775819;30;20078;-76
2022/06/09 07:06:03;;;;;;;2.50;0.80;;;17.60;90.80;;;;;;4788796;29;20483;-75
2022/06/09 07:08:31;;;;;;;4.25;1.05;;;17.70;90.70;;;;;;4789401;29;20043;-79
2022/06/09 07:10:58;;;;;;;4.70;0.73;;;17.80;90.60;;;;;;4789728;29;20059;-78
2022/06/09 07:13:25;;;;;;;3.42;0.85;;;17.80;90.30;;;;;;4774334;29;20081;-78
2022/06/09 07:15:52;;;;;;;2.42;0.95;;;17.80;90.30;;;;;;4808508;29;20043;-78
2022/06/09 07:18:27;;;;;;;3.03;0.90;;;17.90;90.00;;;;;;4774089;30;20142;-78
2022/06/09 07:20:54;;;;;;;1.38;0.70;;;17.80;89.60;;;;;;4773731;30;20059;-77
2022/06/09 07:23:22;;;;;;;3.25;0.68;;;17.70;89.30;;;;;;4789117;30;20138;-78
2022/06/09 07:25:49;;;;;;;3.65;0.93;;;17.70;89.30;;;;;;4777251;29;20054;-78
2022/06/09 07:28:16;;;;;;;2.88;1.15;;;17.80;89.00;;;;;;4804557;29;20098;-78
2022/06/09 07:30:46;;;;;;;2.78;1.00;;;17.90;88.40;;;;;;4792403;29;20396;-77
2022/06/09 07:33:14;;;;;;;2.45;1.02;;;17.90;88.20;;;;;;4788814;29;20108;-77
2022/06/09 07:35:42;;;;;;;3.35;1.10;;;18.10;88.30;;;;;;4788699;29;20078;-77
2022/06/09 07:38:11;;;;;;;4.60;1.48;;;18.20;87.70;;;;;;4788818;30;20100;-77
2022/06/09 07:40:41;;;;;;;3.05;1.23;;;18.20;86.60;;;;;;4788898;30;20055;-77
2022/06/09 07:43:08;;;;;;;2.72;1.30;;;18.30;86.90;;;;;;4801672;29;20071;-78
2022/06/09 07:45:38;;;;;;;2.40;1.13;;;18.40;86.50;;;;;;4788762;30;20047;-78
2022/06/09 07:48:06;;;;;;;1.92;1.00;;;18.40;86.10;;;;;;4773647;30;20043;-77
2022/06/09 07:50:37;;;;;;;3.25;1.23;;;18.50;86.20;;;;;;4787872;29;20517;-77
2022/06/09 07:53:05;;;;;;;2.40;1.23;;;18.60;86.20;;;;;;4788362;29;20055;-78
2022/06/09 07:55:33;;;;;;;5.53;1.02;;;18.70;86.10;;;;;;4777166;30;20130;-79
2022/06/09 07:58:00;;;;;;;4.03;1.42;;;18.90;85.70;;;;;;4788146;29;20054;-77
2022/06/09 08:00:28;;;;;;;2.67;1.52;;;19.00;84.50;;;;;;4803891;29;20059;-77
2022/06/09 08:02:55;;;;;;;4.63;1.63;;;19.00;84.40;;;;;;4788477;30;20100;-77
2022/06/09 08:05:24;;;;;;;1.30;1.10;;;18.90;84.30;;;;;;4776753;29;20075;-78
2022/06/09 08:07:51;;;;;;;1.92;1.20;;;18.70;84.60;;;;;;4792085;29;20052;-77
2022/06/09 08:10:23;;;;;;;1.75;1.10;;;18.70;85.60;;;;;;4785028;29;20059;-80
2022/06/09 08:12:51;;;;;;;;;;;18.90;84.70;;;;;;4749801;30;20058;-81
2022/06/09 08:15:20;;;;;;;3.67;1.25;;;19.00;84.50;;;;;;4788175;29;19978;-76
2022/06/09 08:17:47;;;;;;;2.88;1.15;;;19.20;84.10;;;;;;4787987;29;20059;-81
2022/06/09 08:20:15;;;;;;;3.90;1.17;;;19.20;83.60;;;;;;4774059;30;20071;-84
2022/06/09 08:23:05;;;;;;;4.55;1.80;;;19.30;83.40;;;;;;4786032;30;20188;-83
2022/06/09 08:25:33;;;;;;;1.30;1.08;;;19.40;83.00;;;;;;4803287;29;20059;-83
2022/06/09 08:28:00;;;;;;;3.20;1.38;;;19.70;82.80;;;;;;4773202;30;20058;-82
2022/06/09 08:30:27;;;;;;;2.47;1.10;;;19.80;82.10;;;;;;4773358;29;20055;-80
2022/06/09 08:32:54;;;;;;;2.38;1.65;;;19.90;82.20;;;;;;4776371;30;20047;-80
2022/06/09 08:35:26;;;;;;;1.40;0.88;;;19.90;81.50;;;;;;4787384;29;20058;-78
2022/06/09 08:37:53;;;;;;;1.90;0.90;;;19.90;81.40;;;;;;4787552;29;20130;-79
2022/06/09 08:40:32;;;;;;;2.55;1.20;;;20.10;81.60;;;;;;4788115;29;20055;-78
2022/06/09 08:43:30;;;;;;;2.40;1.35;;;20.30;80.60;;;;;;4790025;29;20423;-78
2022/06/09 08:46:19;;;;;;;2.45;0.90;;;20.50;80.20;;;;;;4781718;29;20525;-77
2022/06/09 08:49:00;;;;;;;3.30;1.05;;;20.50;79.90;;;;;;4790835;29;20050;-78
2022/06/09 08:51:39;;;;;;;2.33;1.00;;;20.40;79.40;;;;;;4787400;29;20143;-78
2022/06/09 08:54:18;;;;;;;1.70;1.00;;;20.30;79.30;;;;;;4792741;29;20054;-79
2022/06/09 08:56:47;;;;;;;2.22;0.75;;;20.30;79.20;;;;;;4785890;29;20100;-79
2022/06/09 08:59:24;;;;;;;3.00;1.08;;;20.30;78.80;;;;;;4801889;29;20441;-79
2022/06/09 09:01:57;;;;;;;3.63;0.80;;;20.30;78.10;;;;;;4774014;29;20046;-79
2022/06/09 09:04:30;;;;;;;4.80;0.57;;;20.30;77.60;;;;;;4787149;29;20043;-78
2022/06/09 09:07:25;;;;;;;3.60;0.60;;;20.40;77.20;;;;;;4787238;29;20138;-78
2022/06/09 09:10:00;;;;;;;2.97;0.50;;;20.40;76.90;;;;;;4792530;29;20051;-78
2022/06/09 09:12:44;;;;;;;1.20;0.40;;;20.30;76.60;;;;;;4786248;29;20050;-78
2022/06/09 09:15:23;;;;;;;2.97;0.50;;;20.20;76.40;;;;;;4787363;29;20051;-79
2022/06/09 09:18:00;;;;;;;2.00;0.40;;;20.00;76.50;;;;;;4805883;29;20142;-79
2022/06/09 09:20:34;;;;;;;2.75;0.40;;;19.90;76.40;;;;;;4802029;29;20073;-79
2022/06/09 09:23:07;;;;;;;2.38;0.60;;;19.70;76.40;;;;;;4787477;29;20518;-78
2022/06/09 09:25:54;;;;;;;3.58;0.95;;;19.60;77.10;;;;;;4786566;29;20498;-78
2022/06/09 09:28:47;;;;;;;3.78;0.60;;;19.40;77.10;;;;;;4790421;29;20058;-78
2022/06/09 09:31:25;;;;;;;2.35;0.60;;;19.40;77.40;;;;;;4772268;30;20049;-76
2022/06/09 09:33:52;;;;;;;2.28;0.50;;;19.40;77.80;;;;;;4772331;30;20062;-81
2022/06/09 09:36:23;;;;;;;2.45;0.70;;;19.50;78.10;;;;;;4802071;29;20134;-81
2022/06/09 09:39:02;;;;;;;1.85;0.60;;;19.70;78.40;;;;;;4787003;29;20529;-81
2022/06/09 09:41:33;;;;;;;1.40;0.52;;;19.90;77.10;;;;;;4775150;29;20050;-81
2022/06/09 09:44:30;;;;;;;2.65;0.70;;;20.00;76.80;;;;;;4775221;30;20051;-83
2022/06/09 09:47:02;;;;;;;2.85;0.50;;;20.10;76.40;;;;;;4800360;29;20055;-83
2022/06/09 09:49:39;;;;;;;1.58;0.82;;;20.30;76.20;;;;;;4800636;29;20517;-82
2022/06/09 09:52:45;;;;;;;2.35;0.60;;;20.50;75.90;;;;;;4791289;29;20054;-79
2022/06/09 09:55:36;;;;;;;2.55;0.40;;;20.80;75.90;;;;;;4804633;29;20061;-79
2022/06/09 09:58:24;;;;;;;1.92;0.70;;;21.00;75.80;;;;;;4776996;30;20449;-77
2022/06/09 10:01:15;;;;;;;2.78;0.65;;;21.10;75.80;;;;;;4776985;29;20135;-76
2022/06/09 10:10:27;;;;;;;4.55;1.00;;;20.80;76.00;;;;;;4775704;30;20052;-79
2022/06/09 10:13:16;;;;;;;5.45;1.05;;;19.90;78.20;;;;;;4772282;30;20039;-79
2022/06/09 10:15:49;;;;;;;4.93;0.73;;;19.00;81.00;;;;;;4767895;30;20143;-78
2022/06/09 10:18:33;;;;;;;1.45;0.70;;;18.40;82.90;;;;;;4788720;29;20126;-76
2022/06/09 10:21:18;;;;;;;2.30;0.63;;;18.10;84.10;;;;;;4769176;30;20051;-76
2022/06/09 10:23:57;;;;;;;1.15;0.50;;;17.90;85.00;;;;;;4758891;30;20150;-75
2022/06/09 10:26:34;;;;;;;2.25;0.60;;;17.70;85.50;;;;;;4782715;29;20055;-75
2022/06/09 10:29:13;;;;;;;2.28;0.40;;;17.60;86.00;;;;;;4783545;29;20044;-77
2022/06/09 10:32:02;;;;;;;3.97;0.65;;;17.60;86.20;;;;;;4771303;30;20462;-79
2022/06/09 10:35:01;;;;;;;1.50;0.65;;;17.50;86.60;;;;;;4772904;30;20048;-80
2022/06/09 10:37:41;;;;;;;2.33;0.60;;;17.50;86.70;;;;;;4762622;30;20058;-78
2022/06/09 10:40:20;;;;;;;1.95;0.50;;;17.60;86.90;;;;;;4760115;30;20048;-77
2022/06/09 10:43:08;;;;;;;2.80;0.90;;;17.60;86.80;;;;;;4759475;30;20523;-76
2022/06/09 10:45:52;;;;;;;4.13;0.90;;;17.70;87.00;;;;;;4787805;29;20058;-77
2022/06/09 10:57:51;;;;;;;1.67;0.80;;;18.10;86.20;;;;;;4781719;29;20419;-76
2022/06/09 11:00:28;;;;;;;3.88;1.15;;;18.20;85.90;;;;;;4791612;29;20062;-77
2022/06/09 11:02:59;;;;;;;2.53;0.75;;;18.40;85.70;;;;;;4776859;30;20577;-77
2022/06/09 11:05:54;;;;;;;3.10;1.27;;;18.60;85.20;;;;;;4816526;29;20497;-76
2022/06/09 11:08:43;;;;;;;4.20;0.93;;;18.90;85.30;;;;;;4805386;29;20047;-76
2022/06/09 11:11:17;;;;;;;2.00;0.93;;;19.20;83.20;;;;;;4818497;29;20050;-76
2022/06/09 11:13:53;;;;;;;1.85;0.60;;;19.50;83.00;;;;;;4797175;29;20455;-77
2022/06/09 11:16:26;;;;;;;3.25;0.80;;;19.90;82.20;;;;;;4795932;29;20057;-77
2022/06/09 11:19:09;;;;;;;1.50;0.43;;;20.20;81.00;;;;;;4794584;29;20055;-77
2022/06/09 11:22:05;;;;;;;2.80;0.82;;;20.30;80.90;;;;;;4807393;29;20039;-77
2022/06/09 11:24:54;;;;;;;2.00;0.50;;;20.20;80.40;;;;;;4792542;29;20051;-76
2022/06/09 11:27:28;;;;;;;4.05;0.60;;;20.00;80.20;;;;;;4806495;29;20574;-78
2022/06/09 11:30:13;;;;;;;3.80;0.70;;;20.00;80.30;;;;;;4782251;30;20419;-78
2022/06/09 11:33:03;;;;;;;2.03;0.95;;;19.90;79.80;;;;;;4791428;29;20146;-77
2022/06/09 11:35:58;;;;;;;0.70;0.50;;;19.80;79.80;;;;;;4797823;29;20051;-77
2022/06/09 11:38:38;;;;;;;2.47;0.57;;;19.70;79.20;;;;;;4815064;29;20058;-78
2022/06/09 11:41:16;;;;;;;1.42;0.45;;;19.70;78.90;;;;;;4806284;29;20483;-76
2022/06/09 11:44:27;;;;;;;2.30;0.55;;;19.60;78.60;;;;;;4784268;30;20069;-77
2022/06/09 11:47:00;;;;;;;3.20;0.50;;;19.50;78.10;;;;;;4806593;29;20055;-77
2022/06/09 11:49:40;;;;;;;1.75;0.40;;;19.80;76.20;;;;;;4797875;29;20097;-77
2022/06/09 11:52:38;;;;;;;1.08;0.30;;;20.40;74.80;;;;;;4803814;29;20051;-77
2022/06/09 11:55:24;;;;;;;2.08;0.40;;;20.80;73.90;;;;;;4791148;29;20051;-78
2022/06/09 11:57:51;;;;;;;1.70;0.43;;;20.90;72.80;;;;;;4766218;30;20487;-78
2022/06/09 12:00:18;;;;;;;3.47;0.50;;;20.70;72.70;;;;;;4775472;29;20481;-77
2022/06/09 12:03:07;;;;;;;3.03;0.60;;;20.60;72.80;;;;;;4797074;29;20055;-78
2022/06/09 12:05:57;;;;;;;3.50;0.40;;;20.90;72.10;;;;;;4803429;29;20055;-78
2022/06/09 12:08:55;;;;;;;2.83;0.50;;;21.30;68.60;;;;;;4767856;30;20578;-78
2022/06/09 12:11:24;;;;;;;3.10;0.60;;;21.40;69.20;;;;;;4795667;29;20050;-78
2022/06/09 12:14:21;;;;;;;0.77;0.45;;;21.40;68.10;;;;;;4788152;29;20051;-78
2022/06/09 12:17:07;;;;;;;2.00;0.40;;;21.50;67.80;;;;;;4793339;29;20075;-78
2022/06/09 12:19:55;;;;;;;1.33;0.32;;;21.80;66.20;;;;;;4788553;29;20055;-78
2022/06/09 12:22:40;;;;;;;3.08;0.57;;;22.30;65.10;;;;;;4773577;30;20051;-79
2022/06/09 12:25:16;;;;;;;2.47;1.13;;;22.60;63.30;;;;;;4786415;29;20059;-84
2022/06/09 12:27:48;;;;;;;1.88;0.40;;;23.10;63.00;;;;;;4787371;29;20492;-85
2022/06/09 12:30:15;;;;;;;2.80;0.60;;;23.70;63.20;;;;;;4795394;29;20051;-84
2022/06/09 12:32:49;;;;;;;2.17;0.20;;;24.30;62.80;;;;;;4807328;29;20052;-83
2022/06/09 12:35:24;;;;;;;1.45;0.30;;;24.90;62.20;;;;;;4787726;29;20055;-84
2022/06/09 12:38:29;;;;;;;2.25;0.30;;;25.20;61.60;;;;;;4787471;29;20166;-82
2022/06/09 12:41:07;;;;;;;1.73;0.30;;;25.50;59.50;;;;;;4772188;30;20116;-84
2022/06/09 12:43:38;;;;;;;2.70;0.35;;;25.80;58.90;;;;;;4808063;29;20042;-84
2022/06/09 12:46:23;;;;;;;1.60;0.30;;;25.80;57.60;;;;;;4775491;30;20122;-84
2022/06/09 12:48:53;;;;;;;2.03;0.30;;;25.90;57.60;;;;;;4787774;29;20087;-84
2022/06/09 12:51:31;;;;;;;0.90;0.28;;;26.40;57.70;;;;;;4802610;29;20055;-84
2022/06/09 12:54:17;;;;;;;3.35;0.40;;;26.90;56.70;;;;;;4787386;29;20090;-84
2022/06/09 12:56:57;;;;;;;1.45;0.35;;;27.20;55.70;;;;;;4787243;29;20056;-83
2022/06/09 12:59:37;;;;;;;2.92;0.38;;;26.50;55.50;;;;;;4772841;30;20051;-84
2022/06/09 13:02:18;;;;;;;1.65;0.22;;;25.50;57.00;;;;;;4785188;29;20502;-82
2022/06/09 13:05:02;;;;;;;0.60;0.20;;;24.90;55.80;;;;;;4809289;29;20054;-81
2022/06/09 13:07:34;;;;;;;1.05;0.25;;;24.40;57.50;;;;;;4791452;29;20051;-83
2022/06/09 13:10:24;;;;;;;3.45;0.60;;;25.00;56.40;;;;;;4787240;29;20395;-84
2022/06/09 13:13:03;;;;;;;2.50;0.38;;;25.30;54.90;;;;;;4769633;30;20467;-83
2022/06/09 13:15:33;;;;;;;3.28;0.52;;;24.40;55.40;;;;;;4804447;29;20047;-83
2022/06/09 13:18:34;;;;;;;2.17;0.40;;;24.40;54.40;;;;;;4788398;29;20061;-83
2022/06/09 13:21:12;;;;;;;2.75;0.30;;;25.30;53.60;;;;;;4801662;29;20072;-82
2022/06/09 13:23:41;;;;;;;4.07;0.55;;;25.20;53.00;;;;;;4787577;29;20073;-83
2022/06/09 13:26:13;;;;;;;3.45;0.88;;;24.50;53.70;;;;;;4787849;30;20047;-83
2022/06/09 13:28:58;;;;;;;3.08;0.60;;;24.10;53.30;;;;;;4787957;29;20122;-83
2022/06/09 13:31:31;;;;;;;2.13;0.40;;;23.50;53.80;;;;;;4804536;29;20049;-82
2022/06/09 13:34:21;;;;;;;1.17;0.30;;;23.10;55.60;;;;;;4772927;30;20062;-84
2022/06/09 13:36:54;;;;;;;2.25;0.60;;;22.80;56.20;;;;;;4790631;29;20043;-84
2022/06/09 13:39:31;;;;;;;1.98;0.40;;;22.50;55.60;;;;;;4796860;29;20054;-83
2022/06/09 13:42:17;;;;;;;2.08;0.30;;;22.50;56.10;;;;;;4802657;29;20058;-85
2022/06/09 13:45:04;;;;;;;2.30;0.35;;;23.00;55.30;;;;;;4805979;29;20069;-84
2022/06/09 13:47:34;;;;;;;1.75;0.30;;;22.80;55.30;;;;;;4802405;29;20047;-82